createdAt,value
2023-03-24T00:01:49.725Z,100988.31
2023-03-24T00:04:18.356Z,100988.31
2023-03-24T00:06:49.271Z,100988.31
2023-03-24T00:09:18.327Z,100988.31
2023-03-24T00:11:48.374Z,100988.31
2023-03-24T00:14:16.857Z,100730.31
2023-03-24T00:16:45.432Z,100730.31
2023-03-24T00:19:15.313Z,100988.31
2023-03-24T00:21:44.566Z,100730.31
2023-03-24T00:24:13.723Z,100730.31
2023-03-24T00:26:42.880Z,100472.31
2023-03-24T00:29:13.929Z,100472.31
2023-03-24T00:31:43.557Z,100730.31
2023-03-24T00:34:13.542Z,100730.31
2023-03-24T00:36:42.233Z,100988.31
2023-03-24T00:39:10.838Z,101246.34
2023-03-24T00:41:39.583Z,101246.34
2023-03-24T00:44:09.936Z,101246.34
2023-03-24T00:46:46.018Z,101504.38
2023-03-24T00:49:15.761Z,101762.47
2023-03-24T00:51:45.758Z,101762.47
2023-03-24T00:54:14.449Z,101762.47
2023-03-24T00:56:43.766Z,101762.47
2023-03-24T00:59:14.065Z,101762.47
2023-03-24T01:01:45.391Z,101762.47
2023-03-24T01:04:17.152Z,101762.47
2023-03-24T01:06:47.467Z,101762.47
2023-03-24T01:09:16.349Z,101762.47
2023-03-24T01:11:45.461Z,101762.47
2023-03-24T01:14:14.687Z,102020.53
2023-03-24T01:16:45.333Z,101762.47
2023-03-24T01:19:18.902Z,101504.38
2023-03-24T01:21:48.570Z,101504.38
2023-03-24T01:24:17.944Z,101246.34
2023-03-24T01:26:46.742Z,100730.31
2023-03-24T01:29:16.837Z,100730.31
2023-03-24T01:31:46.878Z,100988.31
2023-03-24T01:34:15.501Z,100472.31
2023-03-24T01:36:44.831Z,100472.31
2023-03-24T01:39:13.414Z,100472.31
2023-03-24T01:41:42.543Z,100472.31
2023-03-24T01:44:29.882Z,100730.31
2023-03-24T01:47:00.566Z,100730.31
2023-03-24T01:49:35.799Z,100988.31
2023-03-24T01:52:08.549Z,100988.31
2023-03-24T01:54:41.768Z,100988.31
2023-03-24T01:57:16.038Z,101246.34
2023-03-24T01:59:49.750Z,101762.47
2023-03-24T02:02:49.600Z,102020.53
2023-03-24T02:05:26.723Z,102020.53
2023-03-24T02:08:05.702Z,102020.53
2023-03-24T02:10:36.505Z,102020.53
2023-03-24T02:13:05.175Z,102020.53
2023-03-24T02:15:46.441Z,101504.38
2023-03-24T02:18:25.866Z,101246.34
2023-03-24T02:21:30.442Z,100214.34
2023-03-24T02:24:41.531Z,100214.34
2023-03-24T02:27:34.779Z,98924.81
2023-03-24T02:30:33.115Z,97893.50
2023-03-24T02:33:31.221Z,97635.72
2023-03-24T02:36:37.059Z,95059.00
2023-03-24T02:39:40.200Z,95059.00
2023-03-24T02:42:18.680Z,94286.38
2023-03-24T02:44:56.824Z,93771.38
2023-03-24T02:47:32.029Z,92484.19
2023-03-24T02:50:10.057Z,91454.81
2023-03-24T02:52:47.511Z,90682.97
2023-03-24T02:55:22.680Z,89396.97
2023-03-24T02:57:55.599Z,87854.38
2023-03-24T03:00:59.886Z,86312.47
2023-03-24T03:03:54.573Z,85028.06
2023-03-24T03:06:31.288Z,82974.03
2023-03-24T03:09:05.258Z,81177.78
2023-03-24T03:11:39.593Z,79126.03
2023-03-24T03:14:11.560Z,78100.63
2023-03-24T03:16:45.637Z,77075.53
2023-03-24T03:19:18.976Z,74770.16
2023-03-24T03:21:50.184Z,74002.03
2023-03-24T03:24:27.909Z,73746.06
2023-03-24T03:27:03.562Z,73234.09
2023-03-24T03:29:37.009Z,73234.09
2023-03-24T03:32:08.770Z,72722.25
2023-03-24T03:34:44.540Z,74002.03
2023-03-24T03:37:30.839Z,75026.22
2023-03-24T03:40:02.837Z,75794.56
2023-03-24T03:42:34.426Z,76819.28
2023-03-24T03:45:03.481Z,77844.31
2023-03-24T03:47:33.883Z,79382.44
2023-03-24T03:50:04.887Z,79638.84
2023-03-24T03:52:33.668Z,80664.72
2023-03-24T03:55:03.088Z,81177.78
2023-03-24T03:57:34.420Z,82460.72
2023-03-24T04:00:10.168Z,83744.16
2023-03-24T04:02:53.647Z,84000.91
2023-03-24T04:05:29.353Z,84514.44
2023-03-24T04:08:33.718Z,85028.06
2023-03-24T04:11:41.518Z,85028.06
2023-03-24T04:14:25.874Z,85028.06
2023-03-24T04:17:24.712Z,81177.78
2023-03-24T04:20:06.702Z,68372.50
2023-03-24T04:22:50.422Z,62100.41
2023-03-24T04:25:31.317Z,60008.28
2023-03-24T04:28:05.714Z,58755.63
2023-03-24T04:30:43.081Z,57839.84
2023-03-24T04:33:22.467Z,57553.19
2023-03-24T04:36:06.670Z,56928.25
2023-03-24T04:38:43.057Z,56888.44
2023-03-24T04:41:21.891Z,57087.47
2023-03-24T04:44:03.923Z,57278.53
2023-03-24T04:46:42.023Z,57680.59
2023-03-24T04:49:16.952Z,56747.16
2023-03-24T04:51:46.865Z,56498.44
2023-03-24T04:54:22.091Z,56331.28
2023-03-24T04:56:56.427Z,56038.81
2023-03-24T04:59:36.284Z,56112.41
2023-03-24T05:02:09.173Z,55841.84
2023-03-24T05:04:54.213Z,55865.72
2023-03-24T05:07:31.875Z,55642.91
2023-03-24T05:10:05.162Z,55682.69
2023-03-24T05:12:38.739Z,55579.25
2023-03-24T05:15:14.000Z,55477.81
2023-03-24T05:17:44.955Z,55519.56
2023-03-24T05:20:15.232Z,55324.63
2023-03-24T05:22:47.317Z,55115.78
2023-03-24T05:25:16.000Z,55093.91
2023-03-24T05:27:44.530Z,55034.22
2023-03-24T05:30:39.463Z,54940.75
2023-03-24T05:33:20.800Z,54801.53
2023-03-24T05:35:49.641Z,54797.56
2023-03-24T05:38:18.303Z,54815.47
2023-03-24T05:40:51.038Z,54799.53
2023-03-24T05:43:20.693Z,54809.50
2023-03-24T05:46:00.255Z,54817.44
2023-03-24T05:48:33.997Z,54922.84
2023-03-24T05:51:12.404Z,54938.75
2023-03-24T05:53:40.929Z,54964.63
2023-03-24T05:56:35.703Z,54994.47
2023-03-24T05:59:11.562Z,55034.22
2023-03-24T06:01:56.989Z,55034.22
2023-03-24T06:04:51.776Z,55010.38
2023-03-24T06:07:26.968Z,54998.44
2023-03-24T06:09:58.377Z,55018.31
2023-03-24T06:12:28.075Z,54954.69
2023-03-24T06:15:03.815Z,54942.75
2023-03-24T06:17:34.069Z,54934.78
2023-03-24T06:20:15.996Z,54970.59
2023-03-24T06:23:07.708Z,54859.22
2023-03-24T06:25:50.916Z,54871.16
2023-03-24T06:28:26.257Z,54891.03
2023-03-24T06:30:58.903Z,54849.25
2023-03-24T06:33:34.706Z,54869.16
2023-03-24T06:36:06.873Z,54823.41
2023-03-24T06:38:35.480Z,54835.34
2023-03-24T06:41:06.733Z,54855.22
2023-03-24T06:43:36.247Z,54795.56
2023-03-24T06:46:05.112Z,54791.59
2023-03-24T06:48:34.924Z,54745.84
2023-03-24T06:51:10.438Z,54710.06
2023-03-24T06:53:41.413Z,54696.13
2023-03-24T06:56:10.294Z,54694.13
2023-03-24T06:58:44.750Z,54612.59
2023-03-24T07:01:17.728Z,54604.66
2023-03-24T07:03:58.413Z,54568.84
2023-03-24T07:06:29.809Z,54523.09
2023-03-24T07:09:06.602Z,54529.06
2023-03-24T07:11:35.245Z,54529.06
2023-03-24T07:14:04.891Z,54525.09
2023-03-24T07:16:37.302Z,54501.22
2023-03-24T07:19:26.390Z,54572.81
2023-03-24T07:22:22.553Z,54543.00
2023-03-24T07:25:30.358Z,54552.94
2023-03-24T07:28:18.681Z,54586.75
2023-03-24T07:30:47.666Z,54606.63
2023-03-24T07:33:16.180Z,54616.56
2023-03-24T07:35:46.771Z,54586.75
2023-03-24T07:38:17.227Z,54614.59
2023-03-24T07:40:48.293Z,54584.75
2023-03-24T07:43:17.285Z,54644.41
2023-03-24T07:46:12.789Z,54584.75
2023-03-24T07:48:41.229Z,54636.47
2023-03-24T07:51:09.904Z,54632.50
2023-03-24T07:53:53.177Z,54640.44
2023-03-24T07:56:42.073Z,54632.50
2023-03-24T07:59:12.950Z,54694.13
2023-03-24T08:02:01.834Z,54686.19
2023-03-24T08:04:45.142Z,54688.16
2023-03-24T08:07:32.571Z,54694.13
2023-03-24T08:10:02.673Z,54622.53
2023-03-24T08:12:31.208Z,54568.84
2023-03-24T08:15:00.053Z,54560.91
2023-03-24T08:17:28.625Z,54509.19
2023-03-24T08:20:01.423Z,54471.41
2023-03-24T08:22:30.761Z,54449.53
2023-03-24T08:24:59.288Z,54503.22
2023-03-24T08:27:29.393Z,54419.69
2023-03-24T08:29:58.043Z,54417.72
2023-03-24T08:32:26.512Z,54461.47
2023-03-24T08:34:55.541Z,54431.63
2023-03-24T08:37:24.028Z,54371.97
2023-03-24T08:39:52.713Z,54306.34
2023-03-24T08:42:21.310Z,54242.72
2023-03-24T08:44:51.290Z,54224.81
2023-03-24T08:47:21.791Z,54226.81
2023-03-24T08:49:51.437Z,54202.94
2023-03-24T08:52:20.060Z,54171.13
2023-03-24T08:54:48.894Z,54143.28
2023-03-24T08:57:18.043Z,54111.47
2023-03-24T08:59:49.000Z,54079.66
2023-03-24T09:02:20.884Z,54016.03
2023-03-24T09:04:54.704Z,54008.09
2023-03-24T09:07:23.763Z,54016.03
2023-03-24T09:09:52.304Z,54035.91
2023-03-24T09:12:20.831Z,54024.00
2023-03-24T09:14:50.377Z,54018.03
2023-03-24T09:17:20.839Z,53992.19
2023-03-24T09:19:49.568Z,53996.16
2023-03-24T09:22:18.065Z,54004.09
2023-03-24T09:24:49.240Z,53932.53
2023-03-24T09:27:18.111Z,53938.50
2023-03-24T09:29:46.543Z,53912.66
2023-03-24T09:32:16.618Z,53908.66
2023-03-24T09:34:46.594Z,53890.78
2023-03-24T09:37:15.128Z,53888.78
2023-03-24T09:39:43.704Z,53858.97
2023-03-24T09:42:20.649Z,53843.06
2023-03-24T09:44:55.442Z,53817.22
2023-03-24T09:47:30.796Z,53805.28
2023-03-24T09:50:07.877Z,53793.34
2023-03-24T09:52:41.919Z,53763.53
2023-03-24T09:55:15.367Z,53789.38
2023-03-24T09:57:46.863Z,53741.66
2023-03-24T10:00:20.423Z,53741.66
2023-03-24T10:02:51.151Z,53733.69
2023-03-24T10:05:28.521Z,53753.59
2023-03-24T10:08:01.338Z,53757.56
2023-03-24T10:10:37.933Z,53757.56
2023-03-24T10:13:09.166Z,53755.56
2023-03-24T10:15:45.292Z,53743.66
2023-03-24T10:18:31.147Z,53733.69
2023-03-24T10:21:12.189Z,53767.50
2023-03-24T10:23:47.470Z,53773.47
2023-03-24T10:26:28.512Z,53805.28
2023-03-24T10:29:11.190Z,53763.53
2023-03-24T10:31:40.217Z,53805.28
2023-03-24T10:34:12.826Z,53757.56
2023-03-24T10:36:43.612Z,53761.53
2023-03-24T10:39:21.154Z,53729.72
2023-03-24T10:41:55.981Z,53735.69
2023-03-24T10:44:25.567Z,53749.59
2023-03-24T10:46:57.510Z,53721.78
2023-03-24T10:49:26.050Z,53737.69
2023-03-24T10:52:03.888Z,53727.75
2023-03-24T10:54:33.149Z,53729.72
2023-03-24T10:57:06.661Z,53721.78
2023-03-24T10:59:38.945Z,53729.72
2023-03-24T11:02:19.184Z,53701.88
2023-03-24T11:04:54.629Z,53693.94
2023-03-24T11:07:31.895Z,53709.84
2023-03-24T11:10:05.363Z,53709.84
2023-03-24T11:12:36.052Z,53693.94
2023-03-24T11:15:22.012Z,53687.97
2023-03-24T11:17:56.774Z,53674.06
2023-03-24T11:20:33.667Z,53705.88
2023-03-24T11:23:07.527Z,53678.03
2023-03-24T11:25:38.376Z,53717.78
2023-03-24T11:28:10.058Z,53680.03
2023-03-24T11:30:47.445Z,53674.06
2023-03-24T11:33:34.431Z,53689.97
2023-03-24T11:36:30.640Z,53678.03
2023-03-24T11:39:04.735Z,53658.16
2023-03-24T11:41:33.243Z,53658.16
2023-03-24T11:44:18.217Z,53666.09
2023-03-24T11:46:49.926Z,53674.06
2023-03-24T11:49:22.773Z,53636.28
2023-03-24T11:51:54.462Z,53664.13
2023-03-24T11:54:31.109Z,53646.22
2023-03-24T11:57:05.691Z,53650.19
2023-03-24T11:59:41.604Z,53630.31
2023-03-24T12:02:22.326Z,53626.34
2023-03-24T12:05:05.163Z,53636.28
2023-03-24T12:08:06.233Z,53612.44
2023-03-24T12:11:07.150Z,53618.38
2023-03-24T12:13:37.613Z,53598.50
2023-03-24T12:16:39.295Z,53604.47
2023-03-24T12:19:34.083Z,53588.56
2023-03-24T12:22:17.933Z,53580.63
2023-03-24T12:25:03.286Z,53550.78
2023-03-24T12:27:44.083Z,53562.72
2023-03-24T12:30:20.765Z,53596.53
2023-03-24T12:32:57.647Z,53534.88
2023-03-24T12:35:42.325Z,53600.50
2023-03-24T12:38:22.612Z,53572.66
2023-03-24T12:41:10.854Z,53560.72
2023-03-24T12:43:52.210Z,53578.63
2023-03-24T12:49:38.400Z,53584.59
2023-03-24T12:52:32.595Z,53568.69
2023-03-24T12:55:06.671Z,53610.44
2023-03-24T12:57:39.265Z,53612.44
2023-03-24T13:00:15.325Z,53598.50
2023-03-24T13:02:48.976Z,53618.38
2023-03-24T13:05:22.432Z,53618.38
2023-03-24T13:07:55.375Z,53584.59
2023-03-24T13:10:28.103Z,53592.53
2023-03-24T13:13:02.150Z,53602.47
2023-03-24T13:15:36.748Z,53622.38
2023-03-24T13:18:19.364Z,53674.06
2023-03-24T13:20:52.803Z,53699.91
2023-03-24T13:23:35.541Z,53733.69
2023-03-24T13:26:12.846Z,53856.97
2023-03-24T13:28:51.508Z,54073.69
2023-03-24T13:31:24.005Z,54356.06
2023-03-24T13:33:54.400Z,54590.72
2023-03-24T13:36:44.132Z,55006.38
2023-03-24T13:39:16.763Z,55436.03
2023-03-24T13:41:51.343Z,102020.53
2023-03-24T13:44:21.822Z,96604.81
2023-03-24T13:47:07.132Z,87083.34
2023-03-24T13:49:36.205Z,76563.09
2023-03-24T13:52:07.629Z,72210.47
2023-03-24T13:54:38.670Z,61598.19
2023-03-24T13:57:10.636Z,64492.97
2023-03-24T13:59:42.805Z,60651.72
2023-03-24T14:02:20.846Z,61341.13
2023-03-24T14:04:51.304Z,58572.44
2023-03-24T14:07:46.200Z,57509.41
2023-03-24T14:10:46.050Z,57931.41
2023-03-24T14:13:22.752Z,58447.03
2023-03-24T14:15:52.950Z,58393.25
2023-03-24T14:18:44.142Z,58510.72
2023-03-24T14:21:12.825Z,58811.38
2023-03-24T14:23:44.083Z,58454.97
2023-03-24T14:26:15.557Z,58703.88
2023-03-24T14:28:45.156Z,59394.84
2023-03-24T14:31:25.596Z,61066.16
2023-03-24T14:34:14.550Z,61825.38
2023-03-24T14:36:45.284Z,62405.38
2023-03-24T14:39:27.665Z,57644.75
2023-03-24T14:41:59.042Z,58883.06
2023-03-24T14:44:55.827Z,57704.47
2023-03-24T14:47:29.268Z,58108.56
2023-03-24T14:50:03.958Z,58329.56
2023-03-24T14:52:37.892Z,58586.38
2023-03-24T14:55:12.471Z,59124.00
2023-03-24T14:57:44.000Z,59384.91
2023-03-24T15:00:19.163Z,60022.25
2023-03-24T15:02:50.749Z,60488.38
2023-03-24T15:05:30.098Z,63266.56
2023-03-24T15:08:05.730Z,65773.69
2023-03-24T15:10:39.207Z,70647.59
2023-03-24T15:13:23.417Z,74002.03
2023-03-24T15:15:52.488Z,71426.94
2023-03-24T15:18:22.800Z,65697.88
2023-03-24T15:20:53.417Z,62664.50
2023-03-24T15:23:24.109Z,61472.63
2023-03-24T15:25:55.329Z,61153.81
2023-03-24T15:28:28.213Z,59301.25
2023-03-24T15:30:59.411Z,58429.09
2023-03-24T15:33:30.954Z,57955.28
2023-03-24T15:36:02.468Z,57704.47
2023-03-24T15:38:32.583Z,56978.00
2023-03-24T15:41:04.150Z,56832.72
2023-03-24T15:43:33.031Z,56627.78
2023-03-24T15:46:11.697Z,56601.91
2023-03-24T15:48:41.688Z,56398.94
2023-03-24T15:51:13.080Z,55915.47
2023-03-24T15:53:44.809Z,55547.44
2023-03-24T15:56:26.924Z,55197.34
2023-03-24T15:58:57.586Z,55183.41
2023-03-24T16:01:36.156Z,54954.69
2023-03-24T16:04:12.145Z,54817.44
2023-03-24T16:06:49.194Z,54658.34
2023-03-24T16:09:22.307Z,54620.56
2023-03-24T16:11:50.787Z,54519.13
2023-03-24T16:14:24.836Z,54393.84
2023-03-24T16:16:55.537Z,54338.16
2023-03-24T16:19:25.270Z,54330.22
2023-03-24T16:21:56.015Z,54316.28
2023-03-24T16:24:24.917Z,54222.84
2023-03-24T16:26:53.573Z,54234.75
2023-03-24T16:29:23.894Z,54246.69
2023-03-24T16:31:54.624Z,54302.38
2023-03-24T16:34:24.692Z,54292.44
2023-03-24T16:36:56.723Z,54294.41
2023-03-24T16:39:26.935Z,54296.41
2023-03-24T16:41:56.172Z,54278.50
2023-03-24T16:44:25.071Z,54290.44
2023-03-24T16:46:56.633Z,54290.44
2023-03-24T16:49:26.238Z,54304.38
2023-03-24T16:51:56.953Z,54314.31
2023-03-24T16:54:25.671Z,54230.78
2023-03-24T16:56:54.413Z,54262.59
2023-03-24T16:59:23.140Z,54274.53
2023-03-24T17:01:53.584Z,54290.44
2023-03-24T17:04:24.836Z,54218.84
2023-03-24T17:06:56.109Z,54198.97
2023-03-24T17:09:24.687Z,54187.03
2023-03-24T17:11:55.280Z,54189.03
2023-03-24T17:14:24.279Z,54202.94
2023-03-24T17:16:53.776Z,54191.03
2023-03-24T17:19:24.903Z,54256.63
2023-03-24T17:22:01.106Z,54238.75
2023-03-24T17:24:30.324Z,54270.56
2023-03-24T17:26:59.116Z,54290.44
2023-03-24T17:29:27.665Z,54312.31
2023-03-24T17:31:56.181Z,54348.13
2023-03-24T17:34:24.881Z,54395.84
2023-03-24T17:36:53.596Z,54389.88
2023-03-24T17:39:23.589Z,54413.72
2023-03-24T17:41:52.005Z,54427.66
2023-03-24T17:44:20.470Z,54473.41
2023-03-24T17:46:49.042Z,54509.19
2023-03-24T17:49:17.629Z,54550.94
2023-03-24T17:51:46.150Z,54580.78
2023-03-24T17:54:16.782Z,54626.53
2023-03-24T17:56:46.796Z,54700.09
2023-03-24T17:59:15.740Z,54765.72
2023-03-24T18:01:44.225Z,54849.25
2023-03-24T18:04:12.703Z,54895.00
2023-03-24T18:06:42.400Z,54964.63
2023-03-24T18:09:11.715Z,55018.31
2023-03-24T18:11:40.844Z,55083.97
2023-03-24T18:14:10.819Z,55229.16
2023-03-24T18:16:40.398Z,55304.75
2023-03-24T18:19:09.221Z,55344.53
2023-03-24T18:21:38.245Z,55398.22
2023-03-24T18:24:07.828Z,55447.97
2023-03-24T18:26:36.633Z,55519.56
2023-03-24T18:29:06.837Z,55565.31
2023-03-24T18:31:37.337Z,55555.38
2023-03-24T18:34:06.206Z,55555.38
2023-03-24T18:36:35.613Z,55575.28
2023-03-24T18:39:06.770Z,55507.63
2023-03-24T18:41:46.976Z,55515.59
2023-03-24T18:44:16.926Z,55451.94
2023-03-24T18:46:46.938Z,55443.97
2023-03-24T18:49:15.842Z,55336.56
2023-03-24T18:51:46.854Z,55264.97
2023-03-24T18:54:18.038Z,55264.97
2023-03-24T18:56:46.536Z,55076.00
2023-03-24T18:59:16.061Z,54994.47
2023-03-24T19:01:48.732Z,54867.16
2023-03-24T19:04:19.178Z,54835.34
2023-03-24T19:06:50.379Z,54819.44
2023-03-24T19:09:22.304Z,54815.47
2023-03-24T19:11:51.842Z,54777.66
2023-03-24T19:14:20.305Z,54698.13
2023-03-24T19:16:48.886Z,54692.16
2023-03-24T19:19:20.582Z,54714.03
2023-03-24T19:21:49.383Z,54644.41
2023-03-24T19:24:18.889Z,54692.16
2023-03-24T19:26:47.338Z,54727.94
2023-03-24T19:29:15.930Z,54757.78
2023-03-24T19:31:46.415Z,54799.53
2023-03-24T19:34:15.268Z,54817.44
2023-03-24T19:36:48.348Z,54875.13
2023-03-24T19:39:18.089Z,54875.13
2023-03-24T19:41:46.803Z,54879.09
2023-03-24T19:44:17.956Z,54847.28
2023-03-24T19:46:46.763Z,54879.09
2023-03-24T19:49:16.000Z,54914.91
2023-03-24T19:51:47.395Z,54980.53
2023-03-24T19:54:15.922Z,55050.16
2023-03-24T19:56:44.486Z,55091.91
2023-03-24T19:59:14.908Z,55133.69
2023-03-24T20:01:43.430Z,55203.31
2023-03-24T20:04:14.543Z,55255.00
2023-03-24T20:06:45.092Z,55300.75
2023-03-24T20:09:15.662Z,55282.88
2023-03-24T20:11:44.175Z,55292.81
2023-03-24T20:14:12.735Z,55336.56
2023-03-24T20:16:46.005Z,55328.63
2023-03-24T20:19:14.514Z,55330.59
2023-03-24T20:21:43.237Z,55368.41
2023-03-24T20:24:11.987Z,55332.59
2023-03-24T20:26:42.419Z,55332.59
2023-03-24T20:29:11.178Z,55264.97
2023-03-24T20:31:46.535Z,55249.06
2023-03-24T20:34:23.637Z,55241.09
2023-03-24T20:36:52.279Z,55225.19
2023-03-24T20:39:21.280Z,55253.03
2023-03-24T20:41:51.354Z,55278.88
2023-03-24T20:44:20.900Z,55272.91
2023-03-24T20:46:49.204Z,55332.59
2023-03-24T20:49:17.665Z,55278.88
2023-03-24T20:51:47.510Z,55328.63
2023-03-24T20:54:16.088Z,55314.69
2023-03-24T20:56:47.371Z,55260.97
2023-03-24T20:59:18.459Z,55219.22
2023-03-24T21:01:48.807Z,55205.28
2023-03-24T21:04:20.815Z,55187.38
2023-03-24T21:06:49.319Z,55119.75
2023-03-24T21:09:17.954Z,55169.50
2023-03-24T21:11:46.402Z,55169.50
2023-03-24T21:14:18.031Z,55167.50
2023-03-24T21:16:46.561Z,55197.34
2023-03-24T21:19:15.225Z,55189.38
2023-03-24T21:21:44.741Z,55257.00
2023-03-24T21:24:14.307Z,55290.81
2023-03-24T21:26:42.888Z,55350.50
2023-03-24T21:29:12.602Z,55368.41
2023-03-24T21:31:43.660Z,55396.25
2023-03-24T21:34:12.607Z,55424.09
2023-03-24T21:36:41.118Z,55398.22
2023-03-24T21:39:10.425Z,55449.94
2023-03-24T21:41:40.059Z,55416.13
2023-03-24T21:44:09.570Z,55370.38
2023-03-24T21:46:38.382Z,55420.13
2023-03-24T21:49:11.121Z,55380.34
2023-03-24T21:51:42.884Z,55362.44
2023-03-24T21:54:15.146Z,55338.56
2023-03-24T21:56:43.985Z,55257.00
2023-03-24T21:59:13.480Z,55205.28
2023-03-24T22:01:45.643Z,55165.50
2023-03-24T22:04:17.688Z,55078.00
2023-03-24T22:06:48.109Z,55078.00
2023-03-24T22:09:19.210Z,55179.44
2023-03-24T22:11:47.911Z,55257.00
2023-03-24T22:14:19.166Z,55304.75
2023-03-24T22:16:47.695Z,55272.91
2023-03-24T22:19:17.686Z,55310.72
2023-03-24T22:21:49.641Z,55432.06
2023-03-24T22:24:20.757Z,55465.88
2023-03-24T22:26:49.799Z,55565.31
2023-03-24T22:29:18.412Z,55627.00
2023-03-24T22:31:46.911Z,55766.25
2023-03-24T22:34:15.328Z,55833.88
2023-03-24T22:36:45.407Z,55877.66
2023-03-24T22:39:13.981Z,55847.81
2023-03-24T22:41:43.881Z,55915.47
2023-03-24T22:44:12.672Z,55945.31
2023-03-24T22:46:41.449Z,55977.13
2023-03-24T22:49:12.253Z,56078.59
2023-03-24T22:51:40.984Z,56102.47
2023-03-24T22:54:11.114Z,56154.22
2023-03-24T22:56:39.846Z,56211.91
2023-03-24T22:59:08.510Z,56293.47
2023-03-24T23:01:37.323Z,56309.41
2023-03-24T23:04:06.045Z,56323.31
2023-03-24T23:06:34.626Z,56293.47
2023-03-24T23:09:04.393Z,56295.47
2023-03-24T23:11:34.789Z,56255.69
2023-03-24T23:14:05.754Z,56184.06
2023-03-24T23:16:37.813Z,56132.31
2023-03-24T23:19:08.626Z,55999.03
2023-03-24T23:21:37.436Z,55869.69
2023-03-24T23:24:06.492Z,55688.66
2023-03-24T23:26:36.546Z,55463.88
2023-03-24T23:29:05.247Z,55412.16
2023-03-24T23:31:35.879Z,55362.44
2023-03-24T23:34:07.549Z,55336.56
2023-03-24T23:36:36.191Z,55296.78
2023-03-24T23:39:07.939Z,55233.13
2023-03-24T23:41:38.006Z,55209.25
2023-03-24T23:44:06.625Z,55241.09
2023-03-24T23:46:35.728Z,55243.09
2023-03-24T23:49:04.411Z,55225.19
2023-03-24T23:51:33.243Z,55145.63
2023-03-24T23:54:01.675Z,55149.59
2023-03-24T23:56:30.606Z,55095.88
2023-03-24T23:59:01.388Z,55105.84
